Time;durP1;ratioP1;P1;durP2;ratioP2;P2;SDS_P1;SDS_P2;PMS_P1;PMS_P2;Temp;Humidity;BMP_temperature;BMP_pressure;BME280_temperature;BME280_humidity;BME280_pressure;Samples;Min_cycle;Max_cycle;Signal;HPM_P1;HPM_P2
2023/04/05 00:02:17;;;;;;;6.23;4.70;;;3.00;1.00;;;;;;5049828;28;20219;-65
2023/04/05 00:04:53;;;;;;;6.10;4.80;;;3.00;1.00;;;;;;5031958;28;20815;-65
2023/04/05 00:07:21;;;;;;;5.83;4.23;;;2.90;1.00;;;;;;5050067;28;20227;-65
2023/04/05 00:09:48;;;;;;;4.87;4.17;;;2.80;1.00;;;;;;5050359;28;20683;-65
2023/04/05 00:12:16;;;;;;;7.87;4.30;;;2.80;1.00;;;;;;5050796;28;20195;-65
2023/04/05 00:14:43;;;;;;;8.27;4.97;;;2.70;1.00;;;;;;5052144;28;20291;-67
2023/04/05 00:17:10;;;;;;;6.43;4.80;;;2.70;1.00;;;;;;5052099;28;20294;-65
2023/04/05 00:19:38;;;;;;;5.67;4.23;;;2.70;1.00;;;;;;5052877;28;20199;-65
2023/04/05 00:22:09;;;;;;;7.43;4.63;;;2.70;1.00;;;;;;5051793;28;20261;-65
2023/04/05 00:24:42;;;;;;;6.80;4.80;;;2.80;1.00;;;;;;5051676;28;20200;-65
2023/04/05 00:27:09;;;;;;;11.30;7.03;;;2.70;1.00;;;;;;5050277;28;20195;-64
2023/04/05 00:29:36;;;;;;;9.97;6.27;;;2.60;1.00;;;;;;5050517;28;20223;-65
2023/04/05 00:32:04;;;;;;;13.70;7.17;;;2.60;1.00;;;;;;5051704;28;20219;-65
2023/04/05 00:34:32;;;;;;;8.80;7.23;;;2.50;1.00;;;;;;5042889;28;20655;-69
2023/04/05 00:37:00;;;;;;;15.97;10.67;;;2.50;1.00;;;;;;5050807;28;20282;-65
2023/04/05 00:39:27;;;;;;;17.20;10.70;;;2.40;1.00;;;;;;5050979;28;20227;-66
2023/04/05 00:41:55;;;;;;;14.53;9.47;;;2.40;1.00;;;;;;5052300;28;20673;-65
2023/04/05 00:44:22;;;;;;;14.70;8.67;;;2.40;1.00;;;;;;5035337;28;20294;-66
2023/04/05 00:46:49;;;;;;;12.77;9.33;;;2.30;1.00;;;;;;5052946;28;20207;-68
2023/04/05 00:49:16;;;;;;;15.93;10.47;;;2.20;1.00;;;;;;5052843;28;20204;-68
2023/04/05 00:51:44;;;;;;;12.47;7.33;;;2.30;1.00;;;;;;5034668;28;20233;-68
2023/04/05 00:54:12;;;;;;;11.30;7.10;;;2.20;1.00;;;;;;5035087;28;20203;-67
2023/04/05 00:56:40;;;;;;;9.20;6.30;;;2.10;1.00;;;;;;5033981;28;20208;-67
2023/04/05 00:59:07;;;;;;;10.20;6.23;;;2.10;1.00;;;;;;5050654;28;20257;-72
2023/04/05 01:01:38;;;;;;;11.53;9.07;;;2.10;1.00;;;;;;5051060;28;20215;-68
2023/04/05 01:04:07;;;;;;;7.63;6.63;;;2.10;1.00;;;;;;5066653;28;20235;-66
2023/04/05 01:06:48;;;;;;;9.43;6.03;;;2.10;1.00;;;;;;5051185;28;20226;-71
2023/04/05 01:09:18;;;;;;;7.53;5.80;;;2.00;1.00;;;;;;5050674;28;20567;-67
2023/04/05 01:11:47;;;;;;;7.50;5.80;;;2.00;1.00;;;;;;5033548;28;20330;-69
2023/04/05 01:14:14;;;;;;;8.10;6.13;;;1.90;1.00;;;;;;5047313;28;20199;-66
2023/04/05 01:16:41;;;;;;;7.33;6.10;;;1.90;1.00;;;;;;5030534;28;20204;-67
2023/04/05 01:19:08;;;;;;;8.87;6.23;;;1.90;1.00;;;;;;5049783;28;20278;-67
2023/04/05 01:21:44;;;;;;;8.20;6.13;;;1.80;1.00;;;;;;5049847;28;20639;-67
2023/04/05 01:24:45;;;;;;;8.23;6.10;;;1.80;1.00;;;;;;5050970;28;20673;-67
2023/04/05 01:27:49;;;;;;;8.53;5.40;;;1.70;1.00;;;;;;5050963;28;20728;-67
2023/04/05 01:30:38;;;;;;;8.57;6.10;;;1.70;1.00;;;;;;4982133;28;20258;-67
2023/04/05 01:33:11;;;;;;;9.10;6.00;;;1.60;1.00;;;;;;5041841;28;20226;-69
2023/04/05 01:35:43;;;;;;;7.73;5.87;;;1.60;1.00;;;;;;5043132;28;20235;-69
2023/04/05 01:38:16;;;;;;;6.80;5.70;;;1.50;1.00;;;;;;5039442;28;20203;-68
2023/04/05 01:40:44;;;;;;;9.10;5.60;;;1.50;1.00;;;;;;5049040;28;20714;-68
2023/04/05 01:43:15;;;;;;;7.17;5.20;;;1.50;1.00;;;;;;5050052;28;20290;-67
2023/04/05 01:45:44;;;;;;;6.43;5.40;;;1.50;1.00;;;;;;5040560;28;20280;-69
2023/04/05 01:48:12;;;;;;;8.43;6.03;;;1.40;1.00;;;;;;5049535;28;20238;-68
2023/04/05 01:50:39;;;;;;;7.27;6.27;;;1.40;1.00;;;;;;5048806;28;20219;-68
2023/04/05 01:53:07;;;;;;;7.93;5.93;;;1.20;1.00;;;;;;5051509;28;20286;-65
2023/04/05 01:55:34;;;;;;;7.20;5.60;;;1.00;1.00;;;;;;5029923;28;20203;-67
2023/04/05 01:58:02;;;;;;;7.30;5.73;;;1.10;1.00;;;;;;5049946;28;20199;-67
2023/04/05 02:00:29;;;;;;;7.57;5.53;;;1.10;1.00;;;;;;5050210;28;20192;-68
2023/04/05 02:02:56;;;;;;;6.53;5.47;;;1.00;1.00;;;;;;5047658;28;20319;-69
2023/04/05 02:05:24;;;;;;;6.60;5.20;;;1.10;1.00;;;;;;5046595;28;20196;-69
2023/04/05 02:07:51;;;;;;;8.20;5.80;;;1.00;1.00;;;;;;5050993;28;20799;-71
2023/04/05 02:10:19;;;;;;;13.17;6.50;;;1.00;1.00;;;;;;5052178;28;20230;-70
2023/04/05 02:12:46;;;;;;;6.50;5.80;;;0.90;1.00;;;;;;5044254;28;20670;-70
2023/04/05 02:15:13;;;;;;;9.73;6.40;;;0.90;1.00;;;;;;5051277;28;20226;-72
2023/04/05 02:17:44;;;;;;;8.43;5.93;;;0.90;1.00;;;;;;5051123;28;20269;-72
2023/04/05 02:20:13;;;;;;;6.93;5.50;;;0.90;1.00;;;;;;5049694;28;20285;-71
2023/04/05 02:22:44;;;;;;;10.53;7.50;;;0.80;1.00;;;;;;5051357;28;20246;-71
2023/04/05 02:25:12;;;;;;;11.43;6.63;;;0.80;1.00;;;;;;5047740;28;20253;-71
2023/04/05 02:27:40;;;;;;;9.27;6.73;;;0.90;1.00;;;;;;5049182;28;20199;-72
2023/04/05 02:30:08;;;;;;;9.63;5.97;;;0.90;1.00;;;;;;5065847;28;20687;-71
2023/04/05 02:32:35;;;;;;;8.53;6.37;;;0.90;1.00;;;;;;5044591;28;20673;-70
2023/04/05 02:35:05;;;;;;;9.50;5.80;;;0.80;1.00;;;;;;5052235;28;20215;-70
2023/04/05 02:37:32;;;;;;;10.43;6.17;;;0.70;1.00;;;;;;5048137;28;20191;-70
2023/04/05 02:40:00;;;;;;;7.00;5.93;;;0.60;1.00;;;;;;5030162;28;20663;-69
2023/04/05 02:42:27;;;;;;;9.60;5.87;;;0.60;1.00;;;;;;5046933;28;20229;-71
2023/04/05 02:44:54;;;;;;;9.00;6.07;;;0.60;1.00;;;;;;5065396;28;20549;-71
2023/04/05 02:47:21;;;;;;;8.83;6.57;;;0.50;1.00;;;;;;5040088;28;20723;-69
2023/04/05 02:49:56;;;;;;;8.33;6.87;;;0.50;1.00;;;;;;5045102;28;20199;-70
2023/04/05 02:52:25;;;;;;;10.63;9.00;;;0.50;1.00;;;;;;5048476;28;20237;-71
2023/04/05 02:54:53;;;;;;;12.90;9.77;;;0.50;1.00;;;;;;5049496;28;20223;-70
2023/04/05 02:57:26;;;;;;;11.07;9.13;;;0.50;1.00;;;;;;5047255;28;20265;-70
2023/04/05 03:00:00;;;;;;;13.03;8.97;;;0.40;1.00;;;;;;5032856;28;20203;-70
2023/04/05 03:02:30;;;;;;;10.97;8.13;;;0.40;1.00;;;;;;5046310;28;20231;-70
2023/04/05 03:05:01;;;;;;;10.17;7.40;;;0.50;1.00;;;;;;5044075;28;20835;-70
2023/04/05 03:07:31;;;;;;;9.57;6.90;;;0.50;1.00;;;;;;5031771;28;20621;-71
2023/04/05 03:10:01;;;;;;;9.07;7.17;;;0.40;1.00;;;;;;5048671;28;20223;-71
2023/04/05 03:12:29;;;;;;;9.07;7.00;;;0.40;1.00;;;;;;5048931;28;20690;-71
2023/04/05 03:14:56;;;;;;;10.23;7.10;;;0.30;1.00;;;;;;5047731;28;20298;-71
2023/04/05 03:17:24;;;;;;;9.83;7.30;;;0.30;1.00;;;;;;5050123;28;20199;-70
2023/04/05 03:19:59;;;;;;;7.53;6.47;;;0.30;1.00;;;;;;5048174;28;20627;-70
2023/04/05 03:22:26;;;;;;;10.80;6.90;;;0.20;1.00;;;;;;5031338;28;20243;-69
2023/04/05 03:24:56;;;;;;;8.97;6.50;;;0.20;1.00;;;;;;5050942;28;20199;-69
2023/04/05 03:27:24;;;;;;;14.33;7.43;;;0.20;1.00;;;;;;5041702;28;20204;-69
2023/04/05 03:30:01;;;;;;;12.73;7.03;;;0.10;1.00;;;;;;5049471;28;20208;-69
2023/04/05 03:32:31;;;;;;;11.27;6.67;;;0.10;1.00;;;;;;5050303;28;20788;-69
2023/04/05 03:35:06;;;;;;;9.37;6.57;;;0.10;1.00;;;;;;5049853;28;20278;-69
2023/04/05 03:37:34;;;;;;;8.97;6.53;;;0.20;1.00;;;;;;5048567;28;20206;-70
2023/04/05 03:40:05;;;;;;;12.93;6.97;;;0.10;1.00;;;;;;5049837;28;20249;-71
2023/04/05 03:42:33;;;;;;;7.67;6.53;;;0.00;1.00;;;;;;5049247;28;20207;-71
2023/04/05 03:45:00;;;;;;;9.93;6.50;;;0.00;1.00;;;;;;5053060;28;20205;-71
2023/04/05 03:47:28;;;;;;;11.93;7.33;;;0.00;1.00;;;;;;5053888;28;20199;-71
2023/04/05 03:50:01;;;;;;;10.27;6.67;;;0.00;1.00;;;;;;5053146;28;20215;-71
2023/04/05 03:52:30;;;;;;;7.87;6.83;;;0.00;1.00;;;;;;5053615;28;20195;-71
2023/04/05 03:54:58;;;;;;;8.30;6.97;;;0.00;1.00;;;;;;5053067;28;20776;-71
2023/04/05 03:57:29;;;;;;;8.67;6.73;;;0.00;1.00;;;;;;5053453;28;20203;-71
2023/04/05 03:59:59;;;;;;;8.47;6.90;;;-0.10;1.00;;;;;;5053571;28;20199;-71
2023/04/05 04:02:29;;;;;;;9.63;7.07;;;-0.10;1.00;;;;;;5053307;28;20239;-71
2023/04/05 04:04:56;;;;;;;7.93;6.40;;;-0.20;1.00;;;;;;5051544;28;20603;-72
2023/04/05 04:07:25;;;;;;;9.13;6.83;;;-0.20;1.00;;;;;;5052632;28;20569;-71
2023/04/05 04:09:54;;;;;;;12.10;8.10;;;-0.20;1.00;;;;;;5053296;28;20207;-71
2023/04/05 04:12:21;;;;;;;16.70;9.60;;;-0.20;1.00;;;;;;5052665;28;20198;-72
2023/04/05 04:14:55;;;;;;;16.20;10.77;;;-0.30;1.00;;;;;;5052495;28;20546;-72
2023/04/05 04:17:45;;;;;;;13.93;9.40;;;-0.20;1.00;;;;;;5053259;28;20219;-72
2023/04/05 04:20:24;;;;;;;13.23;8.40;;;-0.20;1.00;;;;;;5045590;28;20273;-72
2023/04/05 04:23:09;;;;;;;12.73;9.17;;;-0.20;1.00;;;;;;5052978;28;20235;-71
2023/04/05 04:25:54;;;;;;;15.30;10.33;;;-0.30;1.00;;;;;;5053923;28;20289;-72
2023/04/05 04:28:42;;;;;;;16.80;11.53;;;-0.30;1.00;;;;;;5053163;28;20218;-71
2023/04/05 04:31:32;;;;;;;15.63;11.70;;;-0.30;1.00;;;;;;5049655;28;20289;-71
2023/04/05 04:34:29;;;;;;;18.33;10.17;;;-0.30;1.00;;;;;;5049096;28;20562;-71
2023/04/05 04:37:17;;;;;;;14.70;9.33;;;-0.40;1.00;;;;;;5034315;28;20298;-70
2023/04/05 04:40:05;;;;;;;14.40;8.80;;;-0.50;1.00;;;;;;5053731;28;20195;-70
2023/04/05 04:42:57;;;;;;;12.87;8.97;;;-0.50;1.00;;;;;;5051583;28;20207;-69
2023/04/05 04:45:47;;;;;;;11.40;8.20;;;-0.50;1.00;;;;;;5053487;28;20187;-68
2023/04/05 04:48:32;;;;;;;10.17;7.77;;;-0.50;1.00;;;;;;5036914;28;20203;-68
2023/04/05 04:51:12;;;;;;;12.80;7.73;;;-0.50;1.00;;;;;;5065843;28;20694;-68
2023/04/05 04:53:39;;;;;;;11.80;8.03;;;-0.50;1.00;;;;;;5047686;28;20202;-69
2023/04/05 04:56:07;;;;;;;12.43;8.27;;;-0.50;1.00;;;;;;5051791;28;20683;-69
2023/04/05 04:58:34;;;;;;;13.43;9.93;;;-0.50;1.00;;;;;;5044340;28;20219;-71
2023/04/05 05:01:08;;;;;;;19.60;13.00;;;-0.50;1.00;;;;;;5049996;28;20200;-69
2023/04/05 05:03:39;;;;;;;14.33;11.50;;;-0.50;1.00;;;;;;5050796;28;21316;-71
2023/04/05 05:06:06;;;;;;;15.07;10.50;;;-0.40;1.00;;;;;;5051062;28;20211;-72
2023/04/05 05:08:36;;;;;;;13.27;9.50;;;-0.40;1.00;;;;;;5013202;28;20204;-71
2023/04/05 05:11:06;;;;;;;13.60;9.10;;;-0.30;1.00;;;;;;5048555;28;20216;-72
2023/04/05 05:13:33;;;;;;;13.50;8.70;;;-0.30;1.00;;;;;;5034200;28;20200;-71
2023/04/05 05:16:03;;;;;;;12.07;8.33;;;-0.20;1.00;;;;;;5052100;28;20564;-71
2023/04/05 05:18:30;;;;;;;14.33;8.70;;;-0.20;1.00;;;;;;5051148;28;20266;-70
2023/04/05 05:20:57;;;;;;;12.50;8.40;;;-0.20;1.00;;;;;;5033533;28;20210;-70
2023/04/05 05:23:25;;;;;;;13.63;9.87;;;-0.10;1.00;;;;;;5051266;28;20204;-70
2023/04/05 05:26:01;;;;;;;15.37;12.30;;;-0.10;1.00;;;;;;5042349;28;20235;-73
2023/04/05 05:28:28;;;;;;;14.00;8.83;;;0.00;1.00;;;;;;5051579;28;20256;-70
2023/04/05 05:30:55;;;;;;;11.53;8.73;;;0.10;1.00;;;;;;5050551;28;20212;-70
2023/04/05 05:33:24;;;;;;;16.60;9.30;;;0.20;1.00;;;;;;5041852;28;20195;-70
2023/04/05 05:35:51;;;;;;;12.33;8.80;;;0.30;1.00;;;;;;5042072;28;20196;-69
2023/04/05 05:38:18;;;;;;;17.43;8.93;;;0.50;1.00;;;;;;5042764;28;20200;-72
2023/04/05 05:40:46;;;;;;;10.97;7.87;;;0.70;1.00;;;;;;5050219;28;20204;-71
2023/04/05 05:43:14;;;;;;;15.70;9.23;;;0.80;1.00;;;;;;5051529;28;20227;-73
2023/04/05 05:45:41;;;;;;;13.50;9.90;;;0.90;1.00;;;;;;5052303;28;20219;-70
2023/04/05 05:48:08;;;;;;;11.77;8.60;;;0.80;1.00;;;;;;5052281;28;20192;-69
2023/04/05 05:50:35;;;;;;;12.33;8.67;;;0.80;1.00;;;;;;5051649;28;20291;-70
2023/04/05 05:53:02;;;;;;;11.73;9.23;;;0.90;1.00;;;;;;5050873;28;20214;-69
2023/04/05 05:55:29;;;;;;;12.17;8.70;;;1.00;1.00;;;;;;5050776;28;20187;-70
2023/04/05 05:57:56;;;;;;;14.40;10.13;;;1.10;1.00;;;;;;5067188;28;20199;-70
2023/04/05 06:00:23;;;;;;;14.60;9.57;;;1.20;1.00;;;;;;5050073;28;20195;-70
2023/04/05 06:02:51;;;;;;;10.47;7.37;;;3.80;1.00;;;;;;5032724;28;20594;-69
2023/04/05 06:05:18;;;;;;;9.07;6.77;;;7.00;1.00;;;;;;5034929;28;20210;-69
2023/04/05 06:07:45;;;;;;;17.03;7.10;;;9.30;1.00;;;;;;5051475;28;20196;-71
2023/04/05 06:10:14;;;;;;;14.93;7.20;;;10.60;1.00;;;;;;5052304;28;20281;-70
2023/04/05 06:12:41;;;;;;;9.67;6.23;;;11.60;1.00;;;;;;5048774;28;20264;-71
2023/04/05 06:15:09;;;;;;;7.07;5.87;;;13.20;1.00;;;;;;5043438;28;20209;-71
2023/04/05 06:17:41;;;;;;;7.38;5.97;;;13.80;1.00;;;;;;5047997;28;20317;-73
2023/04/05 06:20:10;;;;;;;6.30;5.55;;;13.70;1.00;;;;;;5030417;28;20192;-71
2023/04/05 06:22:39;;;;;;;6.85;5.32;;;14.20;1.00;;;;;;5047494;28;20203;-71
2023/04/05 06:25:07;;;;;;;9.57;5.88;;;14.10;1.00;;;;;;5048208;28;20804;-69
2023/04/05 06:27:35;;;;;;;8.73;4.97;;;14.60;1.00;;;;;;5047008;28;20272;-68
2023/04/05 06:30:02;;;;;;;7.03;5.47;;;15.00;1.00;;;;;;5047164;28;20668;-68
2023/04/05 06:32:30;;;;;;;6.30;5.05;;;15.70;1.00;;;;;;5046631;28;20537;-68
2023/04/05 06:34:57;;;;;;;7.07;5.63;;;15.10;1.00;;;;;;5039221;28;20243;-69
2023/04/05 06:37:24;;;;;;;8.60;5.00;;;15.30;1.00;;;;;;5046153;28;20245;-68
2023/04/05 06:39:51;;;;;;;10.88;5.57;;;14.80;1.00;;;;;;5047921;28;20580;-68
2023/04/05 06:42:18;;;;;;;6.93;5.07;;;15.20;1.00;;;;;;5046531;28;20249;-68
2023/04/05 06:44:52;;;;;;;7.47;5.78;;;15.80;1.00;;;;;;5053916;28;20858;-68
2023/04/05 06:47:19;;;;;;;7.72;5.57;;;15.20;1.00;;;;;;5045473;28;20270;-69
2023/04/05 06:49:46;;;;;;;6.35;4.90;;;15.90;1.00;;;;;;5046809;28;20213;-68
2023/04/05 06:52:13;;;;;;;9.07;5.85;;;16.10;1.00;;;;;;5045519;28;20262;-68
2023/04/05 06:54:40;;;;;;;6.82;5.50;;;17.50;1.00;;;;;;5047509;28;20199;-69
2023/04/05 06:57:07;;;;;;;7.45;5.15;;;18.60;1.00;;;;;;5045800;28;20748;-69
2023/04/05 06:59:34;;;;;;;7.68;5.00;;;17.40;1.00;;;;;;5046136;28;20200;-69
2023/04/05 07:02:01;;;;;;;9.15;5.55;;;16.20;1.00;;;;;;5029748;28;20215;-70
2023/04/05 07:04:32;;;;;;;9.60;5.47;;;14.20;1.00;;;;;;5046944;28;20237;-70
2023/04/05 07:07:01;;;;;;;8.30;5.63;;;12.90;1.00;;;;;;5045402;28;20730;-68
2023/04/05 07:09:31;;;;;;;8.15;5.40;;;17.10;1.00;;;;;;5044764;28;20210;-70
2023/04/05 07:12:02;;;;;;;7.68;5.45;;;14.30;1.00;;;;;;5044544;28;20298;-69
2023/04/05 07:14:31;;;;;;;7.72;5.70;;;14.30;1.00;;;;;;5042954;28;20207;-69
2023/04/05 07:16:58;;;;;;;12.63;8.25;;;11.90;1.00;;;;;;5046176;28;20690;-67
2023/04/05 07:19:25;;;;;;;8.13;5.55;;;14.30;1.00;;;;;;5046428;28;20591;-69
2023/04/05 07:21:52;;;;;;;6.00;5.38;;;15.20;1.00;;;;;;5046368;28;20588;-70
2023/04/05 07:24:20;;;;;;;6.35;4.85;;;17.50;1.00;;;;;;5047439;28;20202;-68
2023/04/05 07:26:47;;;;;;;6.82;4.53;;;20.60;1.00;;;;;;5047299;28;20609;-68
2023/04/05 07:29:14;;;;;;;7.00;4.40;;;21.90;1.00;;;;;;5047246;28;20249;-68
2023/04/05 07:31:41;;;;;;;7.45;4.88;;;21.70;1.00;;;;;;5044638;28;20709;-67
2023/04/05 07:34:09;;;;;;;8.93;4.93;;;23.60;1.00;;;;;;5021844;28;20202;-68
2023/04/05 07:36:36;;;;;;;7.00;4.65;;;24.60;1.00;;;;;;5045301;28;20702;-66
2023/04/05 07:39:04;;;;;;;5.68;4.53;;;26.00;1.00;;;;;;5037453;28;20306;-66
2023/04/05 07:41:31;;;;;;;9.38;4.63;;;24.50;1.00;;;;;;5022135;28;20241;-66
2023/04/05 07:43:58;;;;;;;6.75;5.05;;;18.60;1.00;;;;;;5051605;28;20272;-66
2023/04/05 07:46:26;;;;;;;6.72;5.30;;;16.90;1.00;;;;;;5040485;28;20234;-68
2023/04/05 07:48:53;;;;;;;8.60;4.97;;;14.80;1.00;;;;;;5035921;28;20195;-66
2023/04/05 07:51:21;;;;;;;8.52;4.90;;;17.90;1.00;;;;;;5025118;28;20418;-65
2023/04/05 07:53:48;;;;;;;9.60;5.82;;;23.20;1.00;;;;;;5041092;28;20218;-63
2023/04/05 07:56:15;;;;;;;7.75;4.95;;;23.90;1.00;;;;;;5043520;28;20202;-63
2023/04/05 07:58:43;;;;;;;8.18;5.07;;;20.80;1.00;;;;;;5038675;28;20800;-65
2023/04/05 08:01:10;;;;;;;7.45;4.88;;;17.10;1.00;;;;;;5042349;28;20234;-67
2023/04/05 08:03:38;;;;;;;6.25;4.68;;;17.60;1.00;;;;;;5042712;28;20239;-68
2023/04/05 08:06:16;;;;;;;6.50;4.38;;;21.80;1.00;;;;;;5041823;28;20204;-65
2023/04/05 08:08:46;;;;;;;7.93;5.03;;;25.00;1.00;;;;;;5043704;28;20202;-68
2023/04/05 08:11:13;;;;;;;6.85;4.88;;;26.60;1.00;;;;;;5039878;28;20644;-65
2023/04/05 08:13:41;;;;;;;8.55;4.75;;;22.90;1.00;;;;;;5042613;28;20655;-66
2023/04/05 08:16:09;;;;;;;6.85;4.72;;;24.50;1.00;;;;;;5038599;28;20206;-66
2023/04/05 08:18:36;;;;;;;7.20;5.28;;;22.50;1.00;;;;;;5043667;28;20218;-66
2023/04/05 08:21:04;;;;;;;5.72;5.10;;;25.80;1.00;;;;;;5042601;28;20249;-65
2023/04/05 08:23:31;;;;;;;6.97;5.07;;;22.70;1.00;;;;;;5053168;28;20295;-66
2023/04/05 08:25:58;;;;;;;6.47;5.03;;;25.90;1.00;;;;;;5044151;28;20679;-66
2023/04/05 08:28:25;;;;;;;8.07;5.00;;;27.50;1.00;;;;;;5044853;28;20203;-66
2023/04/05 08:30:54;;;;;;;6.68;5.00;;;28.10;1.00;;;;;;5048242;28;20211;-66
2023/04/05 08:33:21;;;;;;;9.32;5.72;;;30.20;1.00;;;;;;5048211;28;20855;-66
2023/04/05 08:35:48;;;;;;;11.60;6.53;;;30.20;1.00;;;;;;5047554;28;20223;-66
2023/04/05 08:38:15;;;;;;;10.93;5.80;;;22.30;1.00;;;;;;5047948;28;20216;-66
2023/04/05 08:40:44;;;;;;;8.95;5.70;;;20.60;1.00;;;;;;5047576;28;20290;-66
2023/04/05 08:43:18;;;;;;;7.47;5.10;;;21.40;1.00;;;;;;5047915;28;20207;-66
2023/04/05 08:45:49;;;;;;;6.32;4.63;;;24.00;1.00;;;;;;5039301;28;20195;-66
2023/04/05 08:48:18;;;;;;;8.02;4.88;;;26.00;1.00;;;;;;5048093;28;20203;-67
2023/04/05 08:50:52;;;;;;;6.63;4.32;;;27.00;1.00;;;;;;5038612;28;20261;-67
2023/04/05 08:53:19;;;;;;;4.72;3.65;;;29.50;1.00;;;;;;5047773;28;20190;-67
2023/04/05 08:55:53;;;;;;;7.75;3.60;;;29.50;1.00;;;;;;5046071;28;20275;-67
2023/04/05 08:58:22;;;;;;;7.68;3.90;;;30.30;1.00;;;;;;5046739;28;20206;-67
2023/04/05 09:00:51;;;;;;;5.68;3.90;;;30.60;1.00;;;;;;5045176;28;20200;-66
2023/04/05 09:03:21;;;;;;;5.80;3.90;;;28.80;1.00;;;;;;5045751;28;20259;-66
2023/04/05 09:05:51;;;;;;;7.03;3.90;;;26.00;1.00;;;;;;5047639;28;20221;-66
2023/04/05 09:08:21;;;;;;;5.90;3.78;;;29.20;1.00;;;;;;5046459;28;20219;-66
2023/04/05 09:10:51;;;;;;;7.60;4.43;;;32.00;1.00;;;;;;5046935;28;20648;-66
2023/04/05 09:13:19;;;;;;;5.45;4.05;;;34.20;1.00;;;;;;5063093;28;20294;-66
2023/04/05 09:15:46;;;;;;;4.10;3.70;;;29.20;1.00;;;;;;5047718;28;20227;-66
2023/04/05 09:18:13;;;;;;;5.50;4.03;;;30.10;1.00;;;;;;5048171;28;20188;-68
2023/04/05 09:21:03;;;;;;;5.07;3.72;;;29.90;1.00;;;;;;5047813;28;20194;-66
2023/04/05 09:23:33;;;;;;;6.13;4.28;;;29.70;1.00;;;;;;5047631;28;20195;-67
2023/04/05 09:26:00;;;;;;;5.03;4.00;;;28.70;1.00;;;;;;5046892;28;20208;-69
2023/04/05 09:28:41;;;;;;;6.28;4.15;;;28.90;1.00;;;;;;5047143;28;20655;-67
2023/04/05 09:31:08;;;;;;;6.40;4.00;;;30.80;1.00;;;;;;5047359;28;20211;-67
2023/04/05 09:33:35;;;;;;;6.20;3.83;;;32.70;1.00;;;;;;5045684;28;20678;-66
2023/04/05 09:36:02;;;;;;;6.20;4.28;;;34.30;1.00;;;;;;5034910;28;20710;-67
2023/04/05 09:38:50;;;;;;;5.28;4.03;;;28.90;1.00;;;;;;5044277;28;21064;-67
2023/04/05 09:41:17;;;;;;;5.57;3.92;;;22.90;1.00;;;;;;5046716;28;20290;-67
2023/04/05 09:43:44;;;;;;;6.57;4.35;;;25.00;1.00;;;;;;5043087;28;20287;-67
2023/04/05 09:46:36;;;;;;;6.47;4.97;;;24.80;1.00;;;;;;5044815;28;20200;-67
2023/04/05 09:49:06;;;;;;;6.85;4.38;;;26.10;1.00;;;;;;5043917;28;20663;-69
2023/04/05 09:51:38;;;;;;;4.85;3.72;;;28.90;1.00;;;;;;5046648;28;20658;-67
2023/04/05 09:54:10;;;;;;;4.72;3.72;;;27.00;1.00;;;;;;5042954;28;20666;-67
2023/04/05 09:56:39;;;;;;;4.50;3.33;;;28.70;1.00;;;;;;5053337;28;20275;-66
2023/04/05 09:59:11;;;;;;;4.82;3.40;;;29.60;1.00;;;;;;5045439;28;20246;-68
2023/04/05 10:01:43;;;;;;;5.63;3.45;;;31.80;1.00;;;;;;5045865;28;20253;-66
2023/04/05 10:04:10;;;;;;;4.65;3.22;;;24.10;1.00;;;;;;5045252;28;20238;-66
2023/04/05 10:06:38;;;;;;;3.60;3.10;;;23.70;1.00;;;;;;5044125;28;20238;-66
2023/04/05 10:09:07;;;;;;;5.15;3.80;;;22.90;1.00;;;;;;5036498;28;20283;-65
2023/04/05 10:11:38;;;;;;;7.40;3.85;;;22.10;1.00;;;;;;5044802;28;20207;-66
2023/04/05 10:14:08;;;;;;;6.47;4.07;;;19.90;1.00;;;;;;5043017;28;20230;-66
2023/04/05 10:16:42;;;;;;;7.68;4.47;;;21.40;1.00;;;;;;5060177;28;20226;-67
2023/04/05 10:19:19;;;;;;;7.38;4.00;;;17.90;1.00;;;;;;5037375;28;20276;-66
2023/04/05 10:21:48;;;;;;;9.48;4.43;;;24.90;1.00;;;;;;5042763;28;20274;-66
2023/04/05 10:24:37;;;;;;;6.82;4.72;;;25.20;1.00;;;;;;5040247;28;20198;-66
2023/04/05 10:27:34;;;;;;;6.20;4.00;;;25.80;1.00;;;;;;5035309;28;20207;-66
2023/04/05 10:30:07;;;;;;;6.53;4.15;;;27.20;1.00;;;;;;5041791;28;20208;-66
2023/04/05 10:33:02;;;;;;;6.82;4.57;;;22.30;1.00;;;;;;5038647;28;20299;-66
2023/04/05 10:35:41;;;;;;;5.60;4.68;;;20.60;1.00;;;;;;5043346;28;20695;-67
2023/04/05 10:38:23;;;;;;;4.65;4.25;;;22.40;1.00;;;;;;5024533;28;20862;-66
2023/04/05 10:40:54;;;;;;;7.55;4.50;;;23.90;1.00;;;;;;5054484;28;20695;-67
2023/04/05 10:43:24;;;;;;;6.05;4.85;;;22.80;1.00;;;;;;5038110;28;20211;-66
2023/04/05 10:45:53;;;;;;;5.20;4.50;;;22.10;1.00;;;;;;5046754;28;20199;-68
2023/04/05 10:48:39;;;;;;;7.53;4.90;;;24.40;1.00;;;;;;5036464;28;20217;-66
2023/04/05 10:51:06;;;;;;;4.90;4.00;;;20.30;1.00;;;;;;5036662;28;20254;-67
2023/04/05 10:53:36;;;;;;;7.25;4.93;;;20.60;1.00;;;;;;5041981;28;20199;-62
2023/04/05 10:56:04;;;;;;;8.18;5.38;;;17.20;1.00;;;;;;5044452;28;20282;-67
2023/04/05 10:58:32;;;;;;;7.60;4.63;;;17.10;1.00;;;;;;5045386;28;20245;-63
2023/04/05 11:01:00;;;;;;;9.32;4.85;;;15.20;1.00;;;;;;5044769;28;20279;-67
2023/04/05 11:03:51;;;;;;;6.15;4.78;;;15.90;1.00;;;;;;5037819;28;20293;-66
2023/04/05 11:06:19;;;;;;;6.47;4.85;;;16.50;1.00;;;;;;5032125;28;20700;-63
2023/04/05 11:08:51;;;;;;;7.80;4.82;;;18.30;1.00;;;;;;5044635;28;20196;-64
2023/04/05 11:11:20;;;;;;;7.90;4.50;;;20.90;1.00;;;;;;5045031;28;20248;-66
2023/04/05 11:13:55;;;;;;;6.63;4.90;;;20.50;1.00;;;;;;5035809;28;20196;-66
2023/04/05 11:16:37;;;;;;;5.03;4.53;;;19.30;1.00;;;;;;5041124;28;20230;-67
2023/04/05 11:19:05;;;;;;;6.10;4.88;;;20.40;1.00;;;;;;5043183;28;20199;-66
2023/04/05 11:21:31;;;;;;;6.05;4.80;;;21.00;1.00;;;;;;5043511;28;20195;-63
2023/04/05 11:23:58;;;;;;;6.20;4.30;;;20.40;1.00;;;;;;5043432;28;20276;-65
2023/04/05 11:26:42;;;;;;;5.05;4.53;;;20.00;1.00;;;;;;5044170;28;20208;-64
2023/04/05 11:29:10;;;;;;;5.55;3.90;;;21.20;1.00;;;;;;5043821;28;20207;-67
2023/04/05 11:32:05;;;;;;;6.25;5.00;;;21.60;1.00;;;;;;5043866;28;20295;-68
2023/04/05 11:34:35;;;;;;;6.53;5.15;;;20.10;1.00;;;;;;5043722;28;20215;-66
2023/04/05 11:37:02;;;;;;;5.50;4.82;;;20.00;1.00;;;;;;5039140;28;20184;-67
2023/04/05 11:39:29;;;;;;;5.63;4.53;;;20.10;1.00;;;;;;5044731;28;20200;-66
2023/04/05 11:42:03;;;;;;;6.53;5.05;;;20.30;1.00;;;;;;5042209;28;20295;-68
2023/04/05 11:44:42;;;;;;;6.82;4.90;;;18.90;1.00;;;;;;5045812;28;20248;-66
2023/04/05 11:47:10;;;;;;;6.72;5.55;;;19.50;1.00;;;;;;5044209;28;20187;-66
2023/04/05 11:49:38;;;;;;;5.65;4.78;;;18.40;1.00;;;;;;5059274;28;20206;-67
2023/04/05 11:52:11;;;;;;;6.60;5.05;;;17.80;1.00;;;;;;5027499;28;20222;-67
2023/04/05 11:54:44;;;;;;;7.05;5.22;;;17.90;1.00;;;;;;5044976;28;20666;-67
2023/04/05 11:57:20;;;;;;;8.43;4.70;;;18.20;1.00;;;;;;5040450;28;20281;-64
2023/04/05 11:59:50;;;;;;;7.43;5.13;;;18.90;1.00;;;;;;5045269;28;20198;-67
2023/04/05 12:02:17;;;;;;;7.50;5.13;;;18.00;1.00;;;;;;5035046;28;20220;-64
2023/04/05 12:04:56;;;;;;;5.45;4.70;;;18.00;1.00;;;;;;5047806;28;20207;-64
2023/04/05 12:07:27;;;;;;;9.55;3.92;;;18.70;1.00;;;;;;5047502;28;20281;-65
2023/04/05 12:10:10;;;;;;;5.32;4.68;;;21.00;1.00;;;;;;5048671;28;20195;-63
2023/04/05 12:12:43;;;;;;;7.10;4.68;;;22.50;1.00;;;;;;5047853;28;20297;-62
2023/04/05 12:15:17;;;;;;;6.82;5.00;;;23.00;1.00;;;;;;5048137;28;20196;-64
2023/04/05 12:17:45;;;;;;;7.00;4.47;;;22.70;1.00;;;;;;5046127;28;20266;-63
2023/04/05 12:20:16;;;;;;;6.35;4.38;;;22.40;1.00;;;;;;5046674;28;20195;-64
2023/04/05 12:22:44;;;;;;;5.07;4.10;;;20.00;1.00;;;;;;5047449;28;20278;-63
2023/04/05 12:25:12;;;;;;;6.03;4.97;;;19.00;1.00;;;;;;5048384;28;20222;-66
2023/04/05 12:27:40;;;;;;;5.72;4.72;;;18.70;1.00;;;;;;5048110;28;20203;-62
2023/04/05 12:30:21;;;;;;;6.68;4.43;;;18.10;1.00;;;;;;5048559;28;20254;-65
2023/04/05 12:32:53;;;;;;;8.00;5.40;;;17.30;1.00;;;;;;5046554;28;20216;-65
2023/04/05 12:35:33;;;;;;;6.55;4.85;;;16.60;1.00;;;;;;5044796;28;20222;-63
2023/04/05 12:38:02;;;;;;;14.40;8.35;;;17.70;1.00;;;;;;5046911;28;20188;-62
2023/04/05 12:40:31;;;;;;;6.45;4.70;;;18.70;1.00;;;;;;5046750;28;20207;-63
2023/04/05 12:43:03;;;;;;;8.73;5.03;;;18.60;1.00;;;;;;5048307;28;20207;-64
2023/04/05 12:45:38;;;;;;;6.15;5.32;;;16.90;1.00;;;;;;5047014;28;20241;-65
2023/04/05 12:48:12;;;;;;;5.75;5.10;;;15.60;1.00;;;;;;5063677;28;20715;-64
2023/04/05 12:50:44;;;;;;;6.88;5.38;;;14.50;1.00;;;;;;5059851;28;20202;-66
2023/04/05 12:53:18;;;;;;;6.67;5.20;;;14.30;1.00;;;;;;5029319;28;20303;-64
2023/04/05 12:55:53;;;;;;;5.47;4.73;;;14.30;1.00;;;;;;5046857;28;20688;-64
2023/04/05 12:58:23;;;;;;;7.00;5.13;;;14.30;1.00;;;;;;5046468;28;20558;-65
2023/04/05 13:00:50;;;;;;;9.77;5.00;;;14.60;1.00;;;;;;5039622;28;20195;-65
2023/04/05 13:03:19;;;;;;;7.03;5.27;;;15.10;1.00;;;;;;5046735;28;20235;-65
2023/04/05 13:05:48;;;;;;;8.03;5.40;;;14.60;1.00;;;;;;5050198;28;20282;-63
2023/04/05 13:08:18;;;;;;;7.70;5.47;;;14.80;1.00;;;;;;5048486;28;20296;-64
2023/04/05 13:10:46;;;;;;;7.13;5.20;;;14.90;1.00;;;;;;5047468;28;20198;-64
2023/04/05 13:13:15;;;;;;;6.90;4.93;;;15.00;1.00;;;;;;5046976;28;20215;-65
2023/04/05 13:15:42;;;;;;;9.40;5.83;;;15.40;1.00;;;;;;5044110;28;20188;-66
2023/04/05 13:18:13;;;;;;;6.60;4.60;;;15.70;1.00;;;;;;5045433;28;20258;-69